createdAt,value
2019-04-10T00:00:06.616Z,1006.48
2019-04-10T00:01:09.146Z,1006.53
2019-04-10T00:02:07.101Z,1006.49
2019-04-10T00:03:06.585Z,1006.48
2019-04-10T00:04:07.138Z,1006.48
2019-04-10T00:05:07.565Z,1006.46
2019-04-10T00:06:06.778Z,1006.51
2019-04-10T00:07:12.757Z,1006.44
2019-04-10T00:08:08.214Z,1006.47
2019-04-10T00:09:06.517Z,1006.51
2019-04-10T00:10:07.661Z,1006.49
2019-04-10T00:11:06.503Z,1006.51
2019-04-10T00:12:07.436Z,1006.55
2019-04-10T00:13:06.732Z,1006.46
2019-04-10T00:14:06.470Z,1006.53
2019-04-10T00:15:07.232Z,1006.51
2019-04-10T00:16:07.570Z,1006.51
2019-04-10T00:17:06.918Z,1006.51
2019-04-10T00:18:07.377Z,1006.48
2019-04-10T00:19:06.605Z,1006.56
2019-04-10T00:20:06.395Z,1006.50
2019-04-10T00:21:07.089Z,1006.53
2019-04-10T00:22:06.402Z,1006.55
2019-04-10T00:23:06.811Z,1006.50
2019-04-10T00:24:06.350Z,1006.55
2019-04-10T00:25:06.519Z,1006.52
2019-04-10T00:26:06.327Z,1006.58
2019-04-10T00:27:06.322Z,1006.54
2019-04-10T00:28:08.063Z,1006.53
2019-04-10T00:29:06.291Z,1006.55
2019-04-10T00:30:06.929Z,1006.52
2019-04-10T00:31:07.317Z,1006.55
2019-04-10T00:32:06.268Z,1006.53
2019-04-10T00:33:06.247Z,1006.53
2019-04-10T00:34:07.384Z,1006.55
2019-04-10T00:35:06.523Z,1006.59
2019-04-10T00:36:06.216Z,1006.62
2019-04-10T00:37:06.211Z,1006.56
2019-04-10T00:38:06.980Z,1006.60
2019-04-10T00:39:06.473Z,1006.57
2019-04-10T00:40:06.910Z,1006.59
2019-04-10T00:41:06.157Z,1006.59
2019-04-10T00:42:06.159Z,1006.56
2019-04-10T00:43:06.581Z,1006.60
2019-04-10T00:44:06.124Z,1006.58
2019-04-10T00:45:06.112Z,1006.61
2019-04-10T00:46:06.264Z,1006.58
2019-04-10T00:47:06.596Z,1006.59
2019-04-10T00:48:06.081Z,1006.59
2019-04-10T00:49:07.105Z,1006.57
2019-04-10T00:50:06.461Z,1006.60
2019-04-10T00:51:06.761Z,1006.62
2019-04-10T00:52:06.068Z,1006.63
2019-04-10T00:53:06.023Z,1006.60
2019-04-10T00:54:06.013Z,1006.64
2019-04-10T00:55:06.005Z,1006.67
2019-04-10T00:56:05.992Z,1006.63
2019-04-10T00:57:05.987Z,1006.63
2019-04-10T00:58:05.969Z,1006.64
2019-04-10T00:59:06.050Z,1006.62
2019-04-10T01:00:06.505Z,1006.63
2019-04-10T01:01:05.934Z,1006.62
2019-04-10T01:02:05.933Z,1006.67
2019-04-10T01:03:05.917Z,1006.59
2019-04-10T01:04:06.881Z,1006.67
2019-04-10T01:05:06.840Z,1006.56
2019-04-10T01:06:05.997Z,1006.54
2019-04-10T01:07:05.881Z,1006.60
2019-04-10T01:08:06.633Z,1006.54
2019-04-10T01:09:06.791Z,1006.55
2019-04-10T01:10:06.091Z,1006.53
2019-04-10T01:11:06.605Z,1006.56
2019-04-10T01:12:05.822Z,1006.51
2019-04-10T01:13:05.812Z,1006.52
2019-04-10T01:14:05.789Z,1006.51
2019-04-10T01:15:06.635Z,1006.48
2019-04-10T01:16:05.770Z,1006.54
2019-04-10T01:17:06.235Z,1006.50
2019-04-10T01:18:06.747Z,1006.51
2019-04-10T01:19:05.855Z,1006.54
2019-04-10T01:20:05.722Z,1006.52
2019-04-10T01:21:06.170Z,1006.50
2019-04-10T01:22:06.564Z,1006.50
2019-04-10T01:23:05.871Z,1006.56
2019-04-10T01:24:05.817Z,1006.47
2019-04-10T01:25:06.146Z,1006.51
2019-04-10T01:26:05.654Z,1006.51
2019-04-10T01:27:05.702Z,1006.50
2019-04-10T01:28:06.522Z,1006.50
2019-04-10T01:29:05.623Z,1006.52
2019-04-10T01:30:07.070Z,1006.50
2019-04-10T01:31:06.654Z,1006.45
2019-04-10T01:32:05.724Z,1006.52
2019-04-10T01:33:06.148Z,1006.47
2019-04-10T01:34:05.565Z,1006.52
2019-04-10T01:35:05.824Z,1006.52
2019-04-10T01:36:05.550Z,1006.59
2019-04-10T01:37:05.534Z,1006.55
2019-04-10T01:38:06.459Z,1006.46
2019-04-10T01:39:06.144Z,1006.56
2019-04-10T01:40:06.564Z,1006.57
2019-04-10T01:41:05.768Z,1006.55
2019-04-10T01:42:06.156Z,1006.55
2019-04-10T01:43:11.510Z,1006.51
2019-04-10T01:44:06.454Z,1006.57
2019-04-10T01:45:05.444Z,1006.58
2019-04-10T01:46:06.251Z,1006.61
2019-04-10T01:47:05.421Z,1006.59
2019-04-10T01:48:05.914Z,1006.58
2019-04-10T01:49:05.399Z,1006.58
2019-04-10T01:50:06.371Z,1006.57
2019-04-10T01:51:05.377Z,1006.55
2019-04-10T01:52:05.365Z,1006.56
2019-04-10T01:53:05.824Z,1006.58
2019-04-10T01:54:05.351Z,1006.64
2019-04-10T01:55:16.996Z,1006.64
2019-04-10T01:56:20.455Z,1006.60
2019-04-10T01:57:06.310Z,1006.66
2019-04-10T01:58:05.298Z,1006.63
2019-04-10T01:59:05.649Z,1006.58
2019-04-10T02:00:05.277Z,1006.61
2019-04-10T02:01:05.264Z,1006.58
2019-04-10T02:02:05.307Z,1006.63
2019-04-10T02:03:05.589Z,1006.62
2019-04-10T02:04:05.240Z,1006.66
2019-04-10T02:05:06.160Z,1006.59
2019-04-10T02:06:05.234Z,1006.63
2019-04-10T02:07:05.566Z,1006.62
2019-04-10T02:08:10.034Z,1006.59
2019-04-10T02:09:06.659Z,1006.61
2019-04-10T02:10:05.166Z,1006.62
2019-04-10T02:11:05.153Z,1006.61
2019-04-10T02:12:06.141Z,1006.59
2019-04-10T02:13:05.391Z,1006.67
2019-04-10T02:14:05.724Z,1006.65
2019-04-10T02:15:05.109Z,1006.60
2019-04-10T02:16:06.146Z,1006.61
2019-04-10T02:17:05.087Z,1006.59
2019-04-10T02:18:05.410Z,1006.58
2019-04-10T02:19:06.007Z,1006.57
2019-04-10T02:20:05.055Z,1006.62
2019-04-10T02:21:05.044Z,1006.62
2019-04-10T02:22:05.054Z,1006.61
2019-04-10T02:23:05.849Z,1006.54
2019-04-10T02:24:05.124Z,1006.56
2019-04-10T02:25:05.257Z,1006.52
2019-04-10T02:26:05.376Z,1006.55
2019-04-10T02:27:05.796Z,1006.55
2019-04-10T02:28:04.965Z,1006.53
2019-04-10T02:29:04.965Z,1006.54
2019-04-10T02:30:05.372Z,1006.54
2019-04-10T02:31:04.972Z,1006.58
2019-04-10T02:32:04.918Z,1006.54
2019-04-10T02:33:06.063Z,1006.55
2019-04-10T02:34:06.678Z,1006.54
2019-04-10T02:35:06.911Z,1006.54
2019-04-10T02:36:05.629Z,1006.54
2019-04-10T02:37:04.863Z,1006.52
2019-04-10T02:38:22.962Z,1006.53
2019-04-10T02:39:17.611Z,1006.60
2019-04-10T02:40:07.662Z,1006.55
2019-04-10T02:41:05.847Z,1006.52
2019-04-10T02:42:06.122Z,1006.52
2019-04-10T02:43:05.622Z,1006.57
2019-04-10T02:44:04.997Z,1006.59
2019-04-10T02:45:06.005Z,1006.57
2019-04-10T02:46:06.368Z,1006.58
2019-04-10T02:47:06.315Z,1006.59
2019-04-10T02:48:06.138Z,1006.57
2019-04-10T02:49:06.185Z,1006.59
2019-04-10T02:50:06.156Z,1006.60
2019-04-10T02:51:05.473Z,1006.59
2019-04-10T02:52:06.462Z,1006.59
2019-04-10T02:53:05.550Z,1006.64
2019-04-10T02:54:05.211Z,1006.66
2019-04-10T02:55:06.041Z,1006.66
2019-04-10T02:56:05.399Z,1006.65
2019-04-10T02:57:05.502Z,1006.63
2019-04-10T02:58:06.011Z,1006.60
2019-04-10T02:59:04.964Z,1006.64
2019-04-10T03:00:05.431Z,1006.56
2019-04-10T03:01:04.772Z,1006.59
2019-04-10T03:02:06.204Z,1006.62
2019-04-10T03:03:05.538Z,1006.59
2019-04-10T03:04:05.519Z,1006.64
2019-04-10T03:05:04.695Z,1006.63
2019-04-10T03:06:05.121Z,1006.61
2019-04-10T03:07:04.586Z,1006.64
2019-04-10T03:08:05.393Z,1006.63
2019-04-10T03:09:18.972Z,1006.63
2019-04-10T03:10:15.308Z,1006.68
2019-04-10T03:11:09.273Z,1006.67
2019-04-10T03:12:06.134Z,1006.65
2019-04-10T03:13:04.813Z,1006.67
2019-04-10T03:14:04.703Z,1006.68
2019-04-10T03:15:05.740Z,1006.69
2019-04-10T03:16:05.526Z,1006.73
2019-04-10T03:17:04.417Z,1006.68
2019-04-10T03:18:04.406Z,1006.68
2019-04-10T03:19:05.403Z,1006.68
2019-04-10T03:20:04.391Z,1006.63
2019-04-10T03:21:04.875Z,1006.69
2019-04-10T03:22:07.191Z,1006.70
2019-04-10T03:23:05.261Z,1006.71
2019-04-10T03:24:04.370Z,1006.71
2019-04-10T03:25:04.558Z,1006.75
2019-04-10T03:26:04.337Z,1006.76
2019-04-10T03:27:04.310Z,1006.74
2019-04-10T03:28:05.062Z,1006.75
2019-04-10T03:29:05.286Z,1006.74
2019-04-10T03:30:05.196Z,1006.71
2019-04-10T03:31:07.168Z,1006.71
2019-04-10T03:32:04.979Z,1006.76
2019-04-10T03:33:07.400Z,1006.77
2019-04-10T03:34:08.129Z,1006.74
2019-04-10T03:35:04.230Z,1006.69
2019-04-10T03:36:05.212Z,1006.71
2019-04-10T03:37:04.429Z,1006.76
2019-04-10T03:38:04.182Z,1006.79
2019-04-10T03:39:07.138Z,1006.78
2019-04-10T03:40:04.956Z,1006.79
2019-04-10T03:41:04.161Z,1006.81
2019-04-10T03:42:04.368Z,1006.84
2019-04-10T03:43:04.127Z,1006.83
2019-04-10T03:44:04.121Z,1006.84
2019-04-10T03:45:04.103Z,1006.83
2019-04-10T03:46:04.104Z,1006.84
2019-04-10T03:47:04.081Z,1006.83
2019-04-10T03:48:04.920Z,1006.84
2019-04-10T03:49:05.277Z,1006.77
2019-04-10T03:50:04.639Z,1006.82
2019-04-10T03:51:04.077Z,1006.86
2019-04-10T03:52:05.077Z,1006.84
2019-04-10T03:53:04.015Z,1006.80
2019-04-10T03:54:04.783Z,1006.82
2019-04-10T03:55:04.892Z,1006.84
2019-04-10T03:56:03.994Z,1006.84
2019-04-10T03:57:04.568Z,1006.82
2019-04-10T03:58:03.973Z,1006.83
2019-04-10T03:59:04.155Z,1006.82
2019-04-10T04:00:03.939Z,1006.83
2019-04-10T04:01:04.831Z,1006.85
2019-04-10T04:02:03.919Z,1006.92
2019-04-10T04:03:04.400Z,1006.86
2019-04-10T09:35:40.555Z,1008.83
2019-04-10T09:36:41.651Z,1008.79
2019-04-10T09:37:40.439Z,1008.86
2019-04-10T09:38:41.030Z,1008.85
2019-04-10T09:39:41.302Z,1008.91
2019-04-10T09:40:40.556Z,1008.88
2019-04-10T09:41:40.394Z,1008.97
2019-04-10T09:42:40.383Z,1008.93
2019-04-10T09:43:40.394Z,1008.88
2019-04-10T09:44:40.362Z,1008.86
2019-04-10T09:45:41.535Z,1008.91
2019-04-10T09:46:40.831Z,1008.85
2019-04-10T09:47:40.328Z,1008.84
2019-04-10T09:48:40.327Z,1008.81
2019-04-10T09:49:43.746Z,1008.80
2019-04-10T09:50:41.805Z,1008.82
2019-04-10T09:51:40.441Z,1008.87
2019-04-10T09:52:40.273Z,1008.80
2019-04-10T09:53:41.249Z,1008.71
2019-04-10T09:54:40.480Z,1008.73
2019-04-10T09:55:40.540Z,1008.78
2019-04-10T09:56:40.236Z,1008.84
2019-04-10T09:57:40.900Z,1008.96
2019-04-10T09:58:40.562Z,1009.01
2019-04-10T09:59:41.202Z,1008.86
2019-04-10T10:00:40.293Z,1008.85
2019-04-10T10:01:40.179Z,1008.87
2019-04-10T10:02:40.166Z,1008.85
2019-04-10T10:03:40.164Z,1008.77
2019-04-10T10:04:40.142Z,1008.87
2019-04-10T10:05:40.131Z,1008.89
2019-04-10T10:06:40.125Z,1008.91
2019-04-10T10:07:41.040Z,1008.86
2019-04-10T10:08:40.097Z,1008.93
2019-04-10T10:09:40.955Z,1008.87
2019-04-10T10:10:40.075Z,1008.86
2019-04-10T10:11:40.064Z,1008.87
2019-04-10T10:12:40.778Z,1008.83
2019-04-10T10:13:40.048Z,1008.96
2019-04-10T10:14:40.187Z,1008.93
2019-04-10T10:15:41.019Z,1008.92
2019-04-10T10:16:40.118Z,1008.97
2019-04-10T10:17:41.104Z,1008.99
2019-04-10T10:18:40.002Z,1008.92
2019-04-10T10:19:40.736Z,1008.93
2019-04-10T10:20:39.966Z,1008.83
2019-04-10T10:21:40.799Z,1009.00
2019-04-10T10:22:40.959Z,1008.94
2019-04-10T10:23:40.140Z,1008.94
2019-04-10T10:24:40.460Z,1008.90
2019-04-10T10:25:39.923Z,1008.96
2019-04-10T10:26:40.760Z,1008.90
2019-04-10T10:27:40.764Z,1008.90
2019-04-10T10:28:39.881Z,1008.91
2019-04-10T10:29:39.883Z,1008.88
2019-04-10T10:30:39.865Z,1008.91
2019-04-10T10:31:40.229Z,1008.94
2019-04-10T10:32:39.841Z,1008.92
2019-04-10T10:33:39.832Z,1008.83
2019-04-10T10:34:40.807Z,1008.86
2019-04-10T10:35:39.830Z,1008.79
2019-04-10T10:36:43.444Z,1008.86
2019-04-10T10:37:41.065Z,1008.78
2019-04-10T10:38:39.775Z,1008.87
2019-04-10T10:39:39.766Z,1008.82
2019-04-10T10:40:39.767Z,1008.88
2019-04-10T10:41:40.531Z,1008.66
2019-04-10T10:42:41.215Z,1008.70
2019-04-10T10:43:40.448Z,1008.54
2019-04-10T10:44:40.452Z,1008.66
2019-04-10T10:45:39.823Z,1008.53
2019-04-10T10:46:39.830Z,1008.57
2019-04-10T10:47:40.386Z,1008.66
2019-04-10T10:48:39.976Z,1008.53
2019-04-10T10:49:40.230Z,1008.56
2019-04-10T10:50:39.658Z,1008.61
2019-04-10T10:51:39.640Z,1008.68
2019-04-10T10:52:39.865Z,1008.51
2019-04-10T10:53:40.667Z,1008.85
2019-04-10T10:54:39.608Z,1008.85
2019-04-10T10:55:39.962Z,1008.90
2019-04-10T10:56:39.583Z,1008.92
2019-04-10T10:57:39.744Z,1008.93
2019-04-10T10:58:39.781Z,1008.95
2019-04-10T10:59:39.830Z,1008.96
2019-04-10T11:00:39.551Z,1008.91
2019-04-10T11:01:39.994Z,1008.97
2019-04-10T11:02:39.520Z,1008.94
2019-04-10T11:03:40.501Z,1008.97
2019-04-10T11:04:39.862Z,1008.97
2019-04-10T11:05:39.498Z,1009.04
2019-04-10T11:06:51.543Z,1008.99
2019-04-10T11:07:40.589Z,1008.97
2019-04-10T11:08:39.787Z,1008.99
2019-04-10T11:09:40.222Z,1008.92
2019-04-10T11:10:39.451Z,1008.96
2019-04-10T11:11:39.425Z,1008.95
2019-04-10T11:12:39.417Z,1008.98
2019-04-10T11:13:39.404Z,1008.94
2019-04-10T11:14:39.654Z,1008.93
2019-04-10T11:15:43.686Z,1009.06
2019-04-10T11:16:41.117Z,1009.08
2019-04-10T11:17:40.429Z,1008.96
2019-04-10T11:18:40.385Z,1009.02
2019-04-10T11:19:39.505Z,1008.99
2019-04-10T11:20:39.481Z,1008.93
2019-04-10T11:21:40.441Z,1009.02
2019-04-10T11:22:39.725Z,1009.02
2019-04-10T11:23:39.301Z,1008.98
2019-04-10T11:24:40.765Z,1008.95
2019-04-10T11:25:40.419Z,1008.96
2019-04-10T11:26:40.019Z,1008.98
2019-04-10T11:27:39.407Z,1008.98
2019-04-10T11:28:39.365Z,1008.93
2019-04-10T11:29:39.239Z,1008.99
2019-04-10T11:30:41.068Z,1009.00
2019-04-10T11:31:39.686Z,1008.87
2019-04-10T11:32:39.209Z,1008.79
2019-04-10T11:33:39.834Z,1008.81
2019-04-10T11:34:40.726Z,1008.76
2019-04-10T11:35:39.664Z,1008.80
2019-04-10T11:36:40.061Z,1008.77
2019-04-10T11:37:44.582Z,1008.80
2019-04-10T11:38:42.158Z,1008.88
2019-04-10T11:39:43.246Z,1008.90
2019-04-10T11:40:41.427Z,1008.72
2019-04-10T11:41:39.836Z,1008.71
2019-04-10T11:42:40.045Z,1008.55
2019-04-10T11:43:39.118Z,1008.63
2019-04-10T11:44:41.711Z,1008.63
2019-04-10T11:45:44.115Z,1008.67
2019-04-10T11:46:41.878Z,1008.72
2019-04-10T11:47:39.053Z,1008.75
2019-04-10T11:48:41.828Z,1008.76
2019-04-10T11:49:42.888Z,1008.73
2019-04-10T11:50:42.486Z,1008.74
2019-04-10T11:51:39.070Z,1008.82
2019-04-10T11:53:44.121Z,1008.73
2019-04-10T11:54:41.353Z,1008.70
2019-04-10T11:55:44.945Z,1008.72
2019-04-10T11:56:40.021Z,1008.65
2019-04-10T11:57:38.947Z,1008.62
2019-04-10T11:58:48.944Z,1008.52
2019-04-10T11:59:41.052Z,1008.65
2019-04-10T12:00:47.705Z,1008.64
2019-04-10T12:01:40.122Z,1008.60
2019-04-10T12:02:39.582Z,1008.61
2019-04-10T12:04:52.113Z,1008.64
2019-04-10T12:05:41.139Z,1008.69
2019-04-10T12:06:40.343Z,1008.68
2019-04-10T12:08:18.115Z,1008.68
2019-04-10T12:09:04.570Z,1008.62
2019-04-10T12:11:39.809Z,1008.68
2019-04-10T12:12:38.787Z,1008.72
2019-04-10T12:13:38.773Z,1008.68
2019-04-10T12:14:39.581Z,1008.69
2019-04-10T12:15:38.752Z,1008.71
2019-04-10T12:16:39.010Z,1008.70
2019-04-10T12:17:38.735Z,1008.69
2019-04-10T12:18:38.724Z,1008.70
2019-04-10T12:19:38.709Z,1008.77
2019-04-10T12:20:38.700Z,1008.78
2019-04-10T12:21:38.694Z,1008.77
2019-04-10T12:22:38.677Z,1008.78
2019-04-10T12:23:38.664Z,1008.83
2019-04-10T12:24:38.652Z,1008.84
2019-04-10T12:25:38.836Z,1008.83
2019-04-10T12:26:38.641Z,1008.98
2019-04-10T12:27:39.053Z,1008.97
2019-04-10T12:28:38.611Z,1009.04
2019-04-10T12:29:38.603Z,1009.03
2019-04-10T12:30:39.525Z,1009.06
2019-04-10T12:31:39.743Z,1009.02
2019-04-10T12:32:39.005Z,1008.99
2019-04-10T12:33:38.557Z,1009.13
2019-04-10T12:34:38.548Z,1009.01
2019-04-10T12:35:38.537Z,1009.09
2019-04-10T12:36:38.631Z,1009.04
2019-04-10T12:37:39.178Z,1009.13
2019-04-10T12:38:39.522Z,1009.11
2019-04-10T12:39:39.172Z,1009.09
2019-04-10T12:40:40.335Z,1009.06
2019-04-10T12:41:39.425Z,1009.03
2019-04-10T12:42:38.749Z,1009.02
2019-04-10T12:43:38.448Z,1008.98
2019-04-10T12:44:39.500Z,1009.03
2019-04-10T12:45:38.426Z,1008.89
2019-04-10T12:46:39.470Z,1008.98
2019-04-10T12:47:38.415Z,1008.92
2019-04-10T12:48:38.863Z,1008.85
2019-04-10T12:49:39.369Z,1008.85
2019-04-10T12:50:39.104Z,1008.85
2019-04-10T12:51:38.365Z,1008.83
2019-04-10T12:52:38.791Z,1008.83
2019-04-10T12:53:38.344Z,1008.94
2019-04-10T12:54:40.205Z,1008.99
2019-04-10T12:55:38.900Z,1008.92
2019-04-10T12:56:38.311Z,1009.03
2019-04-10T12:57:39.145Z,1008.97
2019-04-10T12:58:39.268Z,1008.97
2019-04-10T12:59:39.405Z,1008.88
2019-04-10T13:00:38.269Z,1008.87
2019-04-10T13:01:38.602Z,1008.90
2019-04-10T13:02:38.637Z,1008.97
2019-04-10T13:03:39.026Z,1008.98
2019-04-10T13:04:38.622Z,1008.97
2019-04-10T13:05:38.217Z,1008.94
2019-04-10T13:06:38.206Z,1008.98
2019-04-10T13:07:38.205Z,1008.94
2019-04-10T13:08:53.432Z,1008.86
2019-04-10T13:09:40.175Z,1008.84
2019-04-10T13:10:38.162Z,1008.79
2019-04-10T13:11:38.155Z,1008.84
2019-04-10T13:12:38.153Z,1008.84
2019-04-10T13:13:38.130Z,1008.82
2019-04-10T13:14:39.745Z,1008.80
2019-04-10T13:15:39.226Z,1008.81
2019-04-10T13:16:38.434Z,1008.72
2019-04-10T13:17:38.616Z,1008.76
2019-04-10T13:18:38.595Z,1008.72
2019-04-10T13:19:38.066Z,1008.65
2019-04-10T13:20:38.056Z,1008.72
2019-04-10T13:21:38.880Z,1008.66
2019-04-10T13:22:38.126Z,1008.58
2019-04-10T13:23:38.536Z,1008.53
2019-04-10T13:24:38.012Z,1008.55
2019-04-10T13:25:38.581Z,1008.63
2019-04-10T13:26:37.991Z,1008.57
2019-04-10T13:27:39.021Z,1008.55
2019-04-10T13:28:37.977Z,1008.52
2019-04-10T13:29:38.499Z,1008.49
2019-04-10T13:30:46.814Z,1008.59
2019-04-10T13:31:38.935Z,1008.60
2019-04-10T13:32:38.122Z,1008.53
2019-04-10T13:33:38.549Z,1008.52
2019-04-10T13:34:37.905Z,1008.52
2019-04-10T13:35:37.942Z,1008.47
2019-04-10T13:36:37.881Z,1008.54
2019-04-10T13:37:37.928Z,1008.45
2019-04-10T13:38:38.343Z,1008.44
2019-04-10T13:39:37.850Z,1008.46
2019-04-10T13:40:37.839Z,1008.45
2019-04-10T13:41:38.680Z,1008.45
2019-04-10T13:42:38.906Z,1008.45
2019-04-10T13:43:38.089Z,1008.42
2019-04-10T13:44:38.403Z,1008.35
2019-04-10T13:45:37.788Z,1008.47
2019-04-10T13:46:37.780Z,1008.41
2019-04-10T13:47:38.668Z,1008.44
2019-04-10T13:48:37.759Z,1008.47
2019-04-10T13:49:37.909Z,1008.49
2019-04-10T13:50:37.728Z,1008.49
2019-04-10T13:51:37.722Z,1008.52
2019-04-10T13:52:38.527Z,1008.53
2019-04-10T13:53:37.764Z,1008.52
2019-04-10T13:54:38.822Z,1008.55
2019-04-10T13:55:37.678Z,1008.56
2019-04-10T13:56:37.664Z,1008.54
2019-04-10T13:57:37.653Z,1008.54
2019-04-10T13:58:37.651Z,1008.58
2019-04-10T13:59:37.633Z,1008.63
2019-04-10T14:00:39.892Z,1008.61
2019-04-10T14:01:37.832Z,1008.69
2019-04-10T14:02:37.616Z,1008.71
2019-04-10T14:03:40.042Z,1008.64
2019-04-10T14:04:37.577Z,1008.62
2019-04-10T14:05:37.570Z,1008.56
2019-04-10T14:06:38.010Z,1008.62
2019-04-10T14:07:37.547Z,1008.68
2019-04-10T14:08:59.896Z,1008.64
2019-04-10T14:09:45.189Z,1008.57
2019-04-10T14:10:41.191Z,1008.50
2019-04-10T14:11:37.535Z,1008.42
2019-04-10T14:12:38.812Z,1008.67
2019-04-10T14:13:38.039Z,1008.60
2019-04-10T14:14:37.469Z,1008.73
2019-04-10T14:15:37.456Z,1008.61
2019-04-10T14:16:37.447Z,1008.66
2019-04-10T14:17:37.703Z,1008.70
2019-04-10T14:18:37.432Z,1008.67
2019-04-10T14:19:37.428Z,1008.77
2019-04-10T14:20:37.633Z,1008.77
2019-04-10T14:21:37.437Z,1008.76
2019-04-10T14:22:37.893Z,1008.78
2019-04-10T14:23:37.475Z,1008.74
2019-04-10T14:24:42.820Z,1008.72
2019-04-10T14:25:38.347Z,1008.70
2019-04-10T14:26:45.971Z,1008.70
2019-04-10T14:27:38.563Z,1008.78
2019-04-10T14:28:37.549Z,1008.73
2019-04-10T14:29:37.309Z,1008.74
2019-04-10T14:30:37.812Z,1008.75
2019-04-10T14:31:37.385Z,1008.70
2019-04-10T14:32:37.620Z,1008.72
2019-04-10T14:33:37.948Z,1008.77
2019-04-10T14:34:37.251Z,1008.73
2019-04-10T14:35:37.239Z,1008.73
2019-04-10T14:36:38.091Z,1008.73
2019-04-10T14:37:37.879Z,1008.77
2019-04-10T14:38:37.207Z,1008.74
2019-04-10T14:39:37.636Z,1008.79
2019-04-10T14:40:37.956Z,1008.79
2019-04-10T14:41:38.032Z,1008.77
2019-04-10T14:42:38.270Z,1008.83
2019-04-10T14:43:37.542Z,1008.87
2019-04-10T14:44:37.147Z,1008.82
2019-04-10T14:45:37.390Z,1008.90
2019-04-10T14:46:38.055Z,1008.79
2019-04-10T14:47:37.103Z,1008.86
2019-04-10T14:48:37.094Z,1008.89
2019-04-10T14:49:37.575Z,1008.99
2019-04-10T14:50:37.869Z,1008.84
2019-04-10T14:51:37.062Z,1008.93
2019-04-10T14:52:37.237Z,1008.88
2019-04-10T14:53:37.273Z,1008.99
2019-04-10T14:54:37.590Z,1008.83
2019-04-10T14:55:37.707Z,1008.91
2019-04-10T14:56:37.839Z,1008.89
2019-04-10T14:57:36.993Z,1008.88
2019-04-10T14:58:37.029Z,1008.84
2019-04-10T14:59:36.980Z,1008.95
2019-04-10T15:00:36.998Z,1008.99
2019-04-10T15:01:37.830Z,1009.04
2019-04-10T15:02:36.987Z,1008.92
2019-04-10T15:03:36.929Z,1009.01
2019-04-10T15:04:37.384Z,1008.91
2019-04-10T15:05:46.550Z,1008.95
2019-04-10T15:06:37.896Z,1008.97
2019-04-10T15:07:37.314Z,1008.99
2019-04-10T15:08:36.872Z,1008.91
2019-04-10T15:09:36.874Z,1008.97
2019-04-10T15:10:36.850Z,1009.02
2019-04-10T15:11:36.843Z,1009.01
2019-04-10T15:12:37.387Z,1008.97
2019-04-10T15:13:37.983Z,1008.98
2019-04-10T15:14:37.478Z,1008.93
2019-04-10T15:15:36.795Z,1008.95
2019-04-10T15:16:36.948Z,1008.96
2019-04-10T15:17:36.773Z,1008.96
2019-04-10T15:18:37.204Z,1009.08
2019-04-10T15:19:36.759Z,1009.09
2019-04-10T15:20:37.562Z,1009.12
2019-04-10T15:21:36.727Z,1009.11
2019-04-10T15:22:37.878Z,1009.08
2019-04-10T15:23:36.709Z,1009.06
2019-04-10T15:24:36.716Z,1009.08
2019-04-10T15:25:37.468Z,1009.07
2019-04-10T15:26:36.686Z,1009.04
2019-04-10T15:27:37.507Z,1009.14
2019-04-10T15:28:36.650Z,1009.21
2019-04-10T15:29:36.650Z,1009.15
2019-04-10T15:30:36.924Z,1009.15
2019-04-10T15:31:36.616Z,1009.14
2019-04-10T15:32:36.610Z,1009.12
2019-04-10T15:33:37.266Z,1009.18
2019-04-10T15:34:37.493Z,1009.20
2019-04-10T15:35:36.574Z,1009.23
2019-04-10T15:36:36.561Z,1009.19
2019-04-10T15:37:37.446Z,1009.22
2019-04-10T15:38:36.539Z,1009.21
2019-04-10T15:39:39.874Z,1009.20
2019-04-10T15:40:36.637Z,1009.27
2019-04-10T15:41:36.517Z,1009.26
2019-04-10T15:42:37.429Z,1009.22
2019-04-10T15:43:37.172Z,1009.25
2019-04-10T15:44:36.481Z,1009.27
2019-04-10T15:45:36.461Z,1009.24
2019-04-10T15:46:37.200Z,1009.25
2019-04-10T15:47:37.433Z,1009.34
2019-04-10T15:48:36.427Z,1009.20
2019-04-10T15:49:36.658Z,1009.28
2019-04-10T15:50:36.423Z,1009.28
2019-04-10T15:51:36.416Z,1009.29
2019-04-10T15:52:37.483Z,1009.37
2019-04-10T15:53:36.582Z,1009.30
2019-04-10T15:54:36.359Z,1009.31
2019-04-10T15:55:36.361Z,1009.25
2019-04-10T15:56:36.382Z,1009.29
2019-04-10T15:57:45.798Z,1009.27
2019-04-10T15:58:37.440Z,1009.35
2019-04-10T15:59:36.595Z,1009.29
2019-04-10T16:00:37.133Z,1009.31
2019-04-10T16:01:37.224Z,1009.38
2019-04-10T16:02:36.454Z,1009.35
2019-04-10T16:03:36.690Z,1009.39
2019-04-10T16:04:36.254Z,1009.38
2019-04-10T16:05:36.254Z,1009.40
2019-04-10T16:06:36.229Z,1009.30
2019-04-10T16:07:36.336Z,1009.39
2019-04-10T16:08:36.554Z,1009.32
2019-04-10T16:09:46.334Z,1009.44
2019-04-10T16:10:37.258Z,1009.38
2019-04-10T16:11:36.272Z,1009.31
2019-04-10T16:12:36.317Z,1009.41
2019-04-10T16:13:36.750Z,1009.45
2019-04-10T16:14:36.136Z,1009.50
2019-04-10T16:15:36.735Z,1009.50
2019-04-10T16:16:36.947Z,1009.50
2019-04-10T16:17:36.104Z,1009.47
2019-04-10T16:18:36.668Z,1009.48
2019-04-10T16:19:36.690Z,1009.50
2019-04-10T16:20:36.908Z,1009.47
2019-04-10T16:21:36.084Z,1009.46
2019-04-10T16:22:36.053Z,1009.52
2019-04-10T16:23:36.038Z,1009.55
2019-04-10T16:24:36.648Z,1009.54
2019-04-10T16:25:36.252Z,1009.54
2019-04-10T16:26:36.002Z,1009.52
2019-04-10T16:27:36.985Z,1009.51
2019-04-10T16:28:35.979Z,1009.53
2019-04-10T16:29:36.478Z,1009.52
2019-04-10T16:30:37.039Z,1009.54
2019-04-10T16:31:35.955Z,1009.66
2019-04-10T16:32:36.938Z,1009.64
2019-04-10T16:33:35.925Z,1009.63
2019-04-10T16:34:35.912Z,1009.65
2019-04-10T16:35:37.287Z,1009.70
2019-04-10T16:36:35.892Z,1009.73
2019-04-10T16:37:35.881Z,1009.74
2019-04-10T16:38:36.438Z,1009.64
2019-04-10T16:39:36.319Z,1009.74
2019-04-10T16:40:36.112Z,1009.72
2019-04-10T16:41:35.845Z,1009.77
2019-04-10T16:42:36.931Z,1009.81
2019-04-10T16:43:36.279Z,1009.86
2019-04-10T16:44:35.803Z,1009.83
2019-04-10T16:45:35.793Z,1009.84
2019-04-10T16:46:36.175Z,1009.87
2019-04-10T16:47:36.510Z,1009.83
2019-04-10T16:48:35.929Z,1009.83
2019-04-10T16:49:35.748Z,1009.85
2019-04-10T16:50:36.381Z,1009.74
2019-04-10T16:51:36.566Z,1009.82
2019-04-10T16:52:36.813Z,1009.87
2019-04-10T16:53:36.314Z,1009.90
2019-04-10T16:54:35.690Z,1009.88
2019-04-10T16:55:36.637Z,1009.88
2019-04-10T16:56:36.006Z,1009.90
2019-04-10T16:57:36.652Z,1009.89
2019-04-10T16:58:36.683Z,1009.90
2019-04-10T16:59:35.635Z,1009.87
2019-04-10T17:00:35.623Z,1009.88
2019-04-10T17:01:35.622Z,1009.90
2019-04-10T17:02:36.037Z,1009.97
2019-04-10T17:03:35.934Z,1009.96
2019-04-10T17:04:36.106Z,1009.93
2019-04-10T17:05:35.567Z,1009.92
2019-04-10T17:06:36.529Z,1009.97
2019-04-10T17:07:35.551Z,1010.01
2019-04-10T17:08:37.355Z,1010.06
2019-04-10T17:09:36.538Z,1010.01
2019-04-10T17:14:27.202Z,1010.07
2019-04-10T17:15:00.410Z,1010.01
2019-04-10T17:16:01.626Z,1010.06
2019-04-10T17:17:00.396Z,1010.12
2019-04-10T17:18:01.048Z,1010.09
2019-04-10T17:19:00.373Z,1010.11
2019-04-10T17:20:00.675Z,1010.16
2019-04-10T17:21:00.704Z,1010.14
2019-04-10T17:22:00.638Z,1010.10
2019-04-10T17:23:00.479Z,1010.20
2019-04-10T17:24:00.792Z,1010.14
2019-04-10T17:25:00.298Z,1010.16
2019-04-10T17:26:00.413Z,1010.14
2019-04-10T17:27:01.397Z,1010.14
2019-04-10T17:28:00.262Z,1010.21
2019-04-10T17:29:00.857Z,1010.27
2019-04-10T17:30:01.258Z,1010.22
2019-04-10T17:31:00.339Z,1010.22
2019-04-10T17:32:00.225Z,1010.25
2019-04-10T17:33:00.649Z,1010.29
2019-04-10T17:34:00.641Z,1010.31
2019-04-10T17:35:00.205Z,1010.31
2019-04-10T17:36:00.270Z,1010.29
2019-04-10T17:37:01.205Z,1010.25
2019-04-10T17:38:00.297Z,1010.32
2019-04-10T17:39:00.815Z,1010.35
2019-04-10T17:40:00.129Z,1010.32
2019-04-10T17:41:02.369Z,1010.34
2019-04-10T17:42:00.114Z,1010.37
2019-04-10T17:43:01.021Z,1010.39
2019-04-10T17:44:02.031Z,1010.40